Time;durP1;ratioP1;P1;durP2;ratioP2;P2;SDS_P1;SDS_P2;PMS_P1;PMS_P2;Temp;Humidity;BMP_temperature;BMP_pressure;BME280_temperature;BME280_humidity;BME280_pressure;Samples;Min_cycle;Max_cycle;Signal;HPM_P1;HPM_P2
2023/11/12 00:02:23;;;;;;;58.10;29.20;;;;;;;2.43;87.43;98578.16;220119;1256;140616;-71
2023/11/12 00:07:30;;;;;;;58.90;27.40;;;;;;;2.50;87.90;98584.98;220260;1256;141425;-70
2023/11/12 00:12:34;;;;;;;62.90;31.50;;;;;;;2.57;87.96;98586.08;220162;1256;140098;-70
2023/11/12 00:17:41;;;;;;;65.30;32.40;;;;;;;2.66;88.40;98590.69;220607;1256;140171;-71
2023/11/12 00:22:46;;;;;;;61.50;31.10;;;;;;;2.76;88.40;98591.50;220380;1257;142505;-70
2023/11/12 00:27:49;;;;;;;61.50;32.50;;;;;;;2.84;88.65;98581.52;220583;1257;140286;-70
2023/11/12 00:32:53;;;;;;;157.90;39.40;;;;;;;2.93;89.03;98580.95;220499;1255;140808;-72
2023/11/12 00:37:56;;;;;;;110.80;40.10;;;;;;;3.01;88.99;98585.35;220588;1255;140952;-75
2023/11/12 00:43:01;;;;;;;62.90;33.70;;;;;;;3.06;88.90;98589.87;220167;1256;140529;-72
2023/11/12 00:48:05;;;;;;;137.40;32.60;;;;;;;3.11;88.84;98590.89;220029;1256;141257;-72
2023/11/12 00:53:08;;;;;;;42.20;29.30;;;;;;;3.14;88.94;98586.85;219959;1256;141275;-71
2023/11/12 00:58:11;;;;;;;56.00;32.80;;;;;;;3.19;89.17;98586.17;217303;1257;141242;-71
2023/11/12 01:03:14;;;;;;;175.60;42.60;;;;;;;3.22;89.19;98589.80;219415;1255;139849;-71
2023/11/12 01:08:17;;;;;;;43.20;26.70;;;;;;;3.23;89.37;98592.34;220349;1255;140537;-71
2023/11/12 01:13:20;;;;;;;50.60;30.40;;;;;;;3.25;89.41;98598.85;218432;1256;140929;-72
2023/11/12 01:18:24;;;;;;;164.60;39.90;;;;;;;3.27;89.34;98602.23;219849;1256;393327;-72
2023/11/12 01:23:27;;;;;;;87.50;35.20;;;;;;;3.30;89.66;98602.66;219726;1256;140232;-72
2023/11/12 01:28:31;;;;;;;207.40;49.40;;;;;;;3.32;89.40;98606.09;220455;1256;141154;-72
2023/11/12 01:33:34;;;;;;;58.70;36.20;;;;;;;3.33;89.53;98605.52;220514;1256;140821;-70
2023/11/12 01:38:38;;;;;;;108.90;35.50;;;;;;;3.38;89.58;98606.10;219347;1254;139943;-71
2023/11/12 01:43:41;;;;;;;71.40;34.10;;;;;;;3.40;89.63;98608.64;219017;1255;140273;-69
2023/11/12 01:48:45;;;;;;;87.30;34.90;;;;;;;3.39;89.50;98612.14;220566;1256;141772;-70
2023/11/12 01:53:49;;;;;;;178.20;42.50;;;;;;;3.39;89.55;98614.73;220450;1254;140177;-72
2023/11/12 01:58:54;;;;;;;80.50;33.90;;;;;;;3.41;89.66;98622.36;220445;1255;140787;-70
2023/11/12 02:03:58;;;;;;;102.20;37.50;;;;;;;3.43;89.78;98625.71;220320;1256;141666;-70
2023/11/12 02:09:02;;;;;;;67.90;29.90;;;;;;;3.46;89.69;98631.13;220181;1255;141378;-69
2023/11/12 02:14:08;;;;;;;75.10;28.10;;;;;;;3.46;89.76;98628.61;220117;1256;141126;-69
2023/11/12 02:19:28;;;;;;;136.90;35.70;;;;;;;3.48;89.66;98631.06;220009;1256;140460;-67
2023/11/12 02:24:31;;;;;;;46.80;30.00;;;;;;;3.50;89.70;98626.73;220103;1256;142698;-68
2023/11/12 02:29:35;;;;;;;47.40;25.30;;;;;;;3.51;89.72;98630.64;220232;1256;140747;-69
2023/11/12 02:34:39;;;;;;;45.50;28.80;;;;;;;3.51;89.69;98630.33;220178;1256;140077;-68
2023/11/12 02:39:41;;;;;;;77.00;30.30;;;;;;;3.50;89.54;98637.73;220457;1255;140793;-68
2023/11/12 02:44:44;;;;;;;57.50;31.50;;;;;;;3.48;89.65;98636.25;220570;1255;140019;-69
2023/11/12 02:50:04;;;;;;;39.20;27.30;;;;;;;3.50;89.77;98636.16;220481;1256;140127;-69
2023/11/12 02:55:07;;;;;;;61.10;30.20;;;;;;;3.53;89.87;98632.65;218965;1256;140268;-68
2023/11/12 03:00:12;;;;;;;72.10;32.20;;;;;;;3.54;89.94;98632.65;220041;1255;139988;-68
2023/11/12 03:05:14;;;;;;;44.60;27.80;;;;;;;3.56;90.16;98635.46;219720;1255;141008;-68
2023/11/12 03:10:17;;;;;;;222.60;46.00;;;;;;;3.61;90.27;98638.52;220067;1256;140304;-69
2023/11/12 03:15:20;;;;;;;211.00;46.10;;;;;;;3.63;90.29;98637.27;220226;1257;140680;-68
2023/11/12 03:20:23;;;;;;;51.70;28.50;;;;;;;3.66;90.29;98634.08;219310;1256;140397;-68
2023/11/12 03:25:27;;;;;;;68.00;32.20;;;;;;;3.69;90.32;98639.10;220185;1256;141089;-68
2023/11/12 03:30:30;;;;;;;159.40;39.60;;;;;;;3.71;90.29;98638.80;220094;1256;140737;-68
2023/11/12 03:35:34;;;;;;;112.80;34.30;;;;;;;3.72;90.28;98641.73;220190;1256;140084;-68
2023/11/12 03:40:38;;;;;;;60.40;29.10;;;;;;;3.71;90.19;98643.17;217921;1256;140881;-69
2023/11/12 03:45:42;;;;;;;101.50;37.00;;;;;;;3.71;90.41;98643.22;220181;1256;142053;-69
2023/11/12 03:50:45;;;;;;;48.90;28.50;;;;;;;3.72;90.37;98643.78;220054;1256;141910;-70
2023/11/12 03:55:47;;;;;;;89.10;34.30;;;;;;;3.70;90.50;98643.42;220078;1257;140763;-69
2023/11/12 04:00:49;;;;;;;114.40;37.00;;;;;;;3.68;90.29;98650.58;220352;1256;141016;-70
2023/11/12 04:05:53;;;;;;;63.10;32.50;;;;;;;3.68;90.24;98653.84;220509;1256;140542;-71
2023/11/12 04:10:56;;;;;;;64.10;33.70;;;;;;;3.68;90.23;98660.52;220433;1256;140092;-68
2023/11/12 04:15:59;;;;;;;119.10;42.00;;;;;;;3.68;90.41;98660.06;220509;1255;140328;-68
2023/11/12 04:21:05;;;;;;;50.30;28.50;;;;;;;3.69;90.30;98662.81;220593;1257;140933;-68
2023/11/12 04:26:10;;;;;;;47.00;29.90;;;;;;;3.67;90.24;98668.31;220506;1256;141329;-68
2023/11/12 04:31:12;;;;;;;88.90;33.00;;;;;;;3.66;90.15;98663.95;220285;1256;141541;-67
2023/11/12 04:36:14;;;;;;;52.70;28.50;;;;;;;3.65;89.98;98670.41;220097;1256;140332;-67
2023/11/12 04:41:17;;;;;;;49.10;30.80;;;;;;;3.62;90.05;98671.17;219013;1256;139805;-67
2023/11/12 04:46:21;;;;;;;57.90;31.60;;;;;;;3.59;90.18;98674.19;220144;1256;140983;-68
2023/11/12 04:51:25;;;;;;;58.50;26.30;;;;;;;3.56;89.90;98674.62;220338;1256;140563;-69
2023/11/12 04:56:27;;;;;;;53.70;28.90;;;;;;;3.53;90.11;98677.00;220539;1259;141813;-69
2023/11/12 05:01:30;;;;;;;56.40;24.80;;;;;;;3.53;89.98;98680.20;220421;1256;140564;-70
2023/11/12 05:06:33;;;;;;;55.50;28.10;;;;;;;3.49;89.94;98681.45;220036;1255;140329;-70
2023/11/12 05:11:40;;;;;;;37.30;24.00;;;;;;;3.50;90.20;98683.35;218057;1257;140513;-70
2023/11/12 05:16:43;;;;;;;49.10;28.60;;;;;;;3.48;90.19;98681.05;220457;1256;140358;-70
2023/11/12 05:21:46;;;;;;;37.00;23.50;;;;;;;3.45;90.01;98691.11;220655;1256;140636;-70
2023/11/12 05:26:50;;;;;;;45.30;27.90;;;;;;;3.41;89.95;98692.08;220103;1256;140942;-69
2023/11/12 05:31:53;;;;;;;41.90;27.30;;;;;;;3.42;90.36;98696.68;219805;1255;140717;-69
2023/11/12 05:36:58;;;;;;;47.50;25.10;;;;;;;3.44;90.21;98697.48;219991;1256;141298;-68
2023/11/12 05:42:02;;;;;;;46.30;29.40;;;;;;;3.43;90.22;98704.30;220505;1255;140804;-69
2023/11/12 05:47:05;;;;;;;52.30;30.00;;;;;;;3.46;90.49;98706.64;219226;1256;140730;-68
2023/11/12 05:52:07;;;;;;;50.30;29.50;;;;;;;3.51;90.61;98707.21;220382;1256;141678;-67
2023/11/12 05:57:12;;;;;;;53.40;31.20;;;;;;;3.51;90.49;98708.59;217461;1259;139967;-68
2023/11/12 06:02:15;;;;;;;52.70;33.00;;;;;;;3.55;90.85;98712.98;220194;1256;142383;-69
2023/11/12 06:07:19;;;;;;;51.20;36.30;;;;;;;3.59;91.02;98719.33;220248;1256;140030;-68
2023/11/12 06:12:22;;;;;;;56.10;35.20;;;;;;;3.63;90.94;98720.95;220079;1256;141778;-69
2023/11/12 06:17:25;;;;;;;69.40;39.40;;;;;;;3.69;91.03;98723.65;220184;1255;140565;-69
2023/11/12 06:22:28;;;;;;;59.80;37.60;;;;;;;3.76;91.23;98729.20;220374;1256;141469;-69
2023/11/12 06:27:30;;;;;;;61.70;35.90;;;;;;;3.82;91.08;98728.66;220593;1256;140300;-69
2023/11/12 06:32:35;;;;;;;69.60;39.20;;;;;;;3.89;91.53;98729.46;220426;1256;141057;-69
2023/11/12 06:37:39;;;;;;;73.00;41.00;;;;;;;3.97;91.62;98729.83;220281;1256;140096;-69
2023/11/12 06:42:43;;;;;;;60.00;33.70;;;;;;;4.08;91.88;98736.41;220327;1256;140639;-69
2023/11/12 06:47:47;;;;;;;57.90;36.50;;;;;;;4.15;91.46;98746.34;220094;1258;140100;-72
2023/11/12 06:52:49;;;;;;;59.20;36.70;;;;;;;4.21;91.88;98746.44;220139;1256;140397;-72
2023/11/12 06:57:52;;;;;;;53.50;34.60;;;;;;;4.30;91.96;98748.02;220406;1256;140313;-70
2023/11/12 07:02:54;;;;;;;55.80;34.20;;;;;;;4.37;92.22;98751.34;220196;1258;140592;-70
2023/11/12 07:07:58;;;;;;;56.70;35.00;;;;;;;4.44;92.27;98757.09;219077;1256;142043;-67
2023/11/12 07:13:01;;;;;;;63.10;35.00;;;;;;;4.50;92.30;98761.46;220083;1256;141268;-68
2023/11/12 07:18:04;;;;;;;43.80;29.80;;;;;;;4.58;92.33;98762.78;219622;1256;140253;-68
2023/11/12 07:23:07;;;;;;;43.20;27.20;;;;;;;4.63;92.57;98762.20;220178;1256;140799;-68
2023/11/12 07:28:10;;;;;;;51.90;31.10;;;;;;;4.67;92.73;98765.73;217241;1259;139615;-67
2023/11/12 07:33:14;;;;;;;54.40;34.60;;;;;;;4.71;92.67;98769.91;220477;1256;140460;-68
2023/11/12 07:38:18;;;;;;;57.40;31.90;;;;;;;4.77;92.74;98779.92;220185;1256;141422;-69
2023/11/12 07:43:21;;;;;;;41.40;25.20;;;;;;;4.86;92.92;98783.23;220134;1257;141349;-68
2023/11/12 07:48:25;;;;;;;34.60;22.50;;;;;;;4.94;92.62;98783.48;220157;1255;140400;-67
2023/11/12 07:53:28;;;;;;;47.70;26.80;;;;;;;4.99;92.74;98785.87;220294;1259;141390;-67
2023/11/12 07:58:31;;;;;;;41.80;23.30;;;;;;;5.06;93.02;98790.02;220294;1256;141073;-67
2023/11/12 08:03:33;;;;;;;51.50;28.70;;;;;;;5.14;93.28;98797.01;220221;1256;141218;-68
2023/11/12 08:08:36;;;;;;;47.50;26.50;;;;;;;5.20;93.47;98797.90;220126;1256;140615;-68
2023/11/12 08:13:40;;;;;;;41.60;23.10;;;;;;;5.25;93.10;98801.11;217246;1259;139832;-68
2023/11/12 08:18:43;;;;;;;31.60;21.40;;;;;;;5.30;93.45;98804.58;220250;1256;140777;-69
2023/11/12 08:23:48;;;;;;;27.40;17.60;;;;;;;5.35;93.11;98809.20;220178;1256;140535;-69
2023/11/12 08:28:51;;;;;;;30.80;20.00;;;;;;;5.44;93.54;98813.48;220078;1256;140354;-71
2023/11/12 08:33:55;;;;;;;29.00;16.30;;;;;;;5.54;93.42;98812.35;220114;1260;140545;-74
2023/11/12 08:39:12;;;;;;;26.00;15.90;;;;;;;5.62;93.69;98814.61;220276;1256;141152;-72
2023/11/12 08:44:17;;;;;;;;;;;;;;;5.66;93.45;98815.69;220123;1256;141116;-73
2023/11/12 08:49:23;;;;;;;24.30;15.70;;;;;;;5.66;93.22;98816.99;220423;1257;127067;-75
2023/11/12 08:54:26;;;;;;;21.90;14.90;;;;;;;5.72;93.13;98820.60;220073;1256;140661;-71
2023/11/12 08:59:28;;;;;;;23.40;15.90;;;;;;;5.82;93.66;98826.23;220170;1257;141587;-73
2023/11/12 09:04:31;;;;;;;17.70;11.90;;;;;;;5.91;93.63;98828.08;220160;1257;140079;-71
2023/11/12 09:09:34;;;;;;;29.20;16.60;;;;;;;5.99;93.91;98833.27;220365;1256;141107;-70
2023/11/12 09:14:37;;;;;;;26.50;14.10;;;;;;;6.05;93.68;98836.64;220310;1256;141348;-71
2023/11/12 09:19:43;;;;;;;26.60;13.90;;;;;;;6.12;93.74;98835.89;220224;1256;141427;-70
2023/11/12 09:24:46;;;;;;;21.00;14.60;;;;;;;6.17;93.41;98840.78;220334;1256;141268;-71
2023/11/12 09:30:12;;;;;;;29.20;13.20;;;;;;;6.24;93.49;98844.91;218817;1256;139917;-70
2023/11/12 09:35:14;;;;;;;22.50;13.30;;;;;;;6.28;93.66;98848.06;218605;1259;223333;-72
2023/11/12 09:40:18;;;;;;;24.50;14.30;;;;;;;6.31;93.18;98850.78;220372;1257;141267;-71
2023/11/12 09:45:25;;;;;;;89.10;36.70;;;;;;;6.35;93.30;98848.85;220494;1257;140360;-71
2023/11/12 09:50:34;;;;;;;54.20;24.60;;;;;;;6.45;93.10;98847.86;218728;1256;141293;-70
2023/11/12 09:55:38;;;;;;;25.00;16.50;;;;;;;6.50;93.34;98852.94;218737;1257;140384;-69
2023/11/12 10:00:43;;;;;;;28.20;17.40;;;;;;;6.57;93.27;98852.10;219968;1256;140440;-70
2023/11/12 10:05:45;;;;;;;25.10;14.70;;;;;;;6.65;93.50;98852.02;218331;1259;140551;-71
2023/11/12 10:10:48;;;;;;;24.40;14.80;;;;;;;6.69;93.06;98852.39;220002;1257;140044;-70
2023/11/12 10:15:50;;;;;;;16.90;13.10;;;;;;;6.66;92.86;98853.55;219676;1256;140378;-69
2023/11/12 10:20:54;;;;;;;17.60;13.40;;;;;;;6.63;92.18;98855.02;220266;1256;142315;-70
2023/11/12 10:26:02;;;;;;;13.50;11.50;;;;;;;6.64;92.49;98854.55;220176;1256;141060;-71
2023/11/12 10:31:07;;;;;;;18.70;12.00;;;;;;;6.72;92.29;98853.95;220306;1256;139736;-71
2023/11/12 10:36:17;;;;;;;15.60;11.30;;;;;;;6.84;92.39;98858.38;220345;1256;140253;-72
2023/11/12 10:41:23;;;;;;;18.00;11.40;;;;;;;6.96;92.20;98857.39;220337;1256;140845;-71
2023/11/12 10:46:28;;;;;;;15.10;10.90;;;;;;;7.09;92.14;98855.41;220228;1256;142282;-71
2023/11/12 10:51:33;;;;;;;22.20;14.60;;;;;;;7.16;92.04;98853.95;220519;1256;140290;-74
2023/11/12 10:56:37;;;;;;;18.00;12.50;;;;;;;7.20;91.51;98856.44;220021;1259;140251;-71
2023/11/12 11:01:44;;;;;;;18.60;12.70;;;;;;;7.26;91.60;98860.16;220431;1259;141636;-73
2023/11/12 11:06:48;;;;;;;14.60;11.60;;;;;;;7.34;91.34;98859.25;218848;1258;141681;-73
2023/11/12 11:11:51;;;;;;;20.50;14.50;;;;;;;7.42;91.04;98861.74;220367;1259;140585;-77
2023/11/12 11:16:54;;;;;;;25.50;15.00;;;;;;;7.55;91.07;98861.69;220310;1256;140258;-70
2023/11/12 11:22:26;;;;;;;17.20;12.30;;;;;;;7.83;91.27;98860.78;220273;1256;140019;-71
2023/11/12 11:27:28;;;;;;;27.20;18.70;;;;;;;8.06;90.46;98856.30;220276;1256;140111;-70
2023/11/12 11:32:31;;;;;;;15.50;11.00;;;;;;;8.21;90.11;98851.30;218703;1259;139775;-71
2023/11/12 11:38:14;;;;;;;13.40;10.40;;;;;;;8.28;89.23;98858.25;220337;1256;141012;-71
2023/11/12 11:43:24;;;;;;;13.80;11.70;;;;;;;8.26;88.57;98861.26;219389;1257;141522;-72
2023/11/12 11:48:27;;;;;;;17.30;11.50;;;;;;;8.23;88.23;98860.73;220381;1255;151828;-73
2023/11/12 11:53:30;;;;;;;17.50;10.60;;;;;;;8.25;87.63;98863.73;220345;1259;140513;-72
2023/11/12 11:58:52;;;;;;;14.80;10.60;;;;;;;8.29;87.25;98868.62;219773;1256;140236;-74
2023/11/12 12:04:06;;;;;;;15.30;9.90;;;;;;;8.31;86.73;98870.90;220437;1257;141274;-73
2023/11/12 12:09:17;;;;;;;17.00;13.30;;;;;;;8.40;86.31;98877.07;218211;1259;139508;-71
2023/11/12 12:15:11;;;;;;;13.40;9.90;;;;;;;8.32;85.74;98880.20;220463;1256;141788;-73
2023/11/12 12:20:39;;;;;;;14.80;10.50;;;;;;;8.26;85.60;98886.42;220439;1257;140133;-72
2023/11/12 12:25:52;;;;;;;13.40;9.80;;;;;;;8.21;85.33;98891.66;220017;1256;141187;-74
2023/11/12 12:30:58;;;;;;;13.30;9.80;;;;;;;8.22;85.13;98887.05;218330;1256;140223;-71
2023/11/12 12:36:19;;;;;;;13.90;11.30;;;;;;;8.21;84.92;98885.23;220442;1256;139800;-73
2023/11/12 12:41:26;;;;;;;15.20;10.40;;;;;;;8.21;84.61;98884.60;220355;1258;140421;-71
2023/11/12 12:46:45;;;;;;;15.20;10.20;;;;;;;8.21;84.36;98883.42;220341;1257;140895;-72
2023/11/12 12:51:55;;;;;;;17.90;12.30;;;;;;;8.24;83.90;98877.00;220484;1259;141713;-69
2023/11/12 12:57:04;;;;;;;14.10;9.20;;;;;;;8.27;83.97;98880.11;220428;1259;141453;-71
2023/11/12 13:02:10;;;;;;;13.20;9.70;;;;;;;8.27;83.50;98888.13;220191;1258;140567;-72
2023/11/12 13:07:21;;;;;;;;;;;;;;;8.15;82.86;98897.27;220418;1257;140207;-71
2023/11/12 13:12:27;;;;;;;12.50;10.30;;;;;;;8.01;82.86;98898.99;220466;1258;126488;-73
2023/11/12 13:17:33;;;;;;;13.10;9.60;;;;;;;7.92;82.67;98902.35;219715;1256;550748;-73
2023/11/12 13:22:43;;;;;;;11.90;8.70;;;;;;;7.87;82.80;98904.67;218806;1257;139756;-73
2023/11/12 13:27:49;;;;;;;12.40;9.70;;;;;;;7.78;82.46;98909.18;220494;1257;141026;-72
2023/11/12 13:32:54;;;;;;;14.00;10.10;;;;;;;7.76;82.67;98915.35;220220;1260;139979;-73
2023/11/12 13:37:59;;;;;;;11.40;8.70;;;;;;;7.73;82.55;98917.20;220220;1257;141890;-71
2023/11/12 13:43:12;;;;;;;13.10;9.70;;;;;;;7.67;82.15;98920.01;220422;1257;141261;-72
2023/11/12 13:48:22;;;;;;;11.10;8.50;;;;;;;7.60;81.85;98930.33;220046;1257;140517;-73
2023/11/12 13:53:29;;;;;;;12.60;10.40;;;;;;;7.47;81.59;98931.48;219781;1260;140686;-72
2023/11/12 13:58:35;;;;;;;10.90;9.30;;;;;;;7.40;81.69;98935.80;220046;1259;140566;-73
2023/11/12 14:03:43;;;;;;;17.70;12.10;;;;;;;7.33;81.78;98941.58;218239;1260;139902;-72
2023/11/12 14:08:48;;;;;;;11.20;8.80;;;;;;;7.21;81.75;98947.64;220025;1259;141116;-74
2023/11/12 14:13:53;;;;;;;14.20;11.60;;;;;;;7.12;82.08;98949.77;220012;1260;141458;-73
2023/11/12 14:19:12;;;;;;;14.30;11.60;;;;;;;7.10;82.63;98950.02;220077;1257;139996;-70
2023/11/12 14:24:16;;;;;;;16.00;11.30;;;;;;;7.13;82.78;98956.42;219189;1256;140648;-70
2023/11/12 14:29:25;;;;;;;16.60;12.10;;;;;;;7.13;83.03;98963.52;217074;1260;140390;-69
2023/11/12 14:34:28;;;;;;;16.10;11.30;;;;;;;7.07;82.92;98961.89;219652;1258;140374;-69
2023/11/12 14:39:37;;;;;;;19.60;13.10;;;;;;;7.04;83.42;98965.70;220241;1257;141859;-70
2023/11/12 14:44:39;;;;;;;16.30;11.40;;;;;;;7.01;82.96;98967.88;220311;1257;141702;-69
2023/11/12 14:49:45;;;;;;;18.80;13.60;;;;;;;6.98;83.20;98967.50;220066;1260;140637;-69
2023/11/12 14:54:52;;;;;;;17.50;12.20;;;;;;;6.93;83.37;98969.75;220028;1260;140545;-68
2023/11/12 14:59:56;;;;;;;14.80;11.90;;;;;;;6.90;83.49;98975.98;220026;1260;140132;-68
2023/11/12 15:05:00;;;;;;;16.20;13.50;;;;;;;6.90;83.41;98979.16;219954;1256;141218;-70
2023/11/12 15:10:05;;;;;;;17.20;11.70;;;;;;;6.89;83.80;98981.95;220076;1257;140499;-70
2023/11/12 15:15:11;;;;;;;22.00;14.00;;;;;;;6.87;83.51;98978.60;219880;1257;140581;-69
2023/11/12 15:20:17;;;;;;;19.00;11.80;;;;;;;6.84;83.20;98982.55;219934;1257;140908;-69
2023/11/12 15:25:24;;;;;;;20.20;13.30;;;;;;;6.80;83.75;98985.52;219905;1256;140475;-69
2023/11/12 15:30:30;;;;;;;14.00;11.20;;;;;;;6.81;83.76;98981.59;220130;1256;141202;-69
2023/11/12 15:35:37;;;;;;;18.10;14.10;;;;;;;6.79;83.75;98980.85;220037;1257;140830;-69
2023/11/12 15:40:44;;;;;;;14.60;10.80;;;;;;;6.78;83.70;98983.52;220133;1258;141033;-69
2023/11/12 15:45:46;;;;;;;16.20;11.40;;;;;;;6.75;83.67;98988.92;219053;1256;140025;-70
2023/11/12 15:50:49;;;;;;;22.80;14.60;;;;;;;6.75;84.13;98992.35;219986;1258;141848;-68
2023/11/12 15:55:52;;;;;;;16.10;11.60;;;;;;;6.74;83.84;98998.85;219303;1257;141005;-69
2023/11/12 16:00:56;;;;;;;13.30;11.20;;;;;;;6.73;83.77;99000.79;220063;1260;139991;-69
2023/11/12 16:06:05;;;;;;;19.70;14.50;;;;;;;6.68;83.85;99004.39;219249;1257;141403;-68
2023/11/12 16:11:09;;;;;;;12.60;9.10;;;;;;;6.65;83.81;99002.67;220148;1256;140437;-68
2023/11/12 16:16:12;;;;;;;15.30;11.30;;;;;;;6.64;84.08;99000.61;219872;1257;139771;-68
2023/11/12 16:21:15;;;;;;;15.20;11.70;;;;;;;6.62;83.85;99002.23;219988;1257;140687;-67
2023/11/12 16:26:18;;;;;;;12.20;9.50;;;;;;;6.62;84.06;99006.88;220136;1256;141363;-68
2023/11/12 16:31:21;;;;;;;12.20;10.00;;;;;;;6.61;84.07;99006.90;220165;1256;140233;-70
2023/11/12 16:36:25;;;;;;;12.20;8.70;;;;;;;6.59;83.78;99010.83;220010;1256;140390;-72
2023/11/12 16:41:28;;;;;;;12.60;8.70;;;;;;;6.57;83.81;99015.42;219738;1257;140489;-70
2023/11/12 16:46:31;;;;;;;11.10;8.90;;;;;;;6.51;84.11;99019.61;220168;1256;139952;-70
2023/11/12 16:51:37;;;;;;;11.80;9.10;;;;;;;6.47;83.92;99023.85;220513;1257;140368;-69
2023/11/12 16:56:41;;;;;;;16.10;9.20;;;;;;;6.45;83.98;99025.52;220207;1256;140065;-68
2023/11/12 17:01:46;;;;;;;14.60;10.50;;;;;;;6.43;84.39;99030.64;219969;1256;140888;-67
2023/11/12 17:06:50;;;;;;;14.50;9.80;;;;;;;6.44;84.63;99036.33;220183;1257;139953;-68
2023/11/12 17:11:55;;;;;;;14.60;9.80;;;;;;;6.41;84.05;99031.52;220152;1256;140023;-69
2023/11/12 17:16:59;;;;;;;12.50;8.30;;;;;;;6.37;84.43;99034.20;220116;1256;140693;-69
2023/11/12 17:22:03;;;;;;;12.90;10.00;;;;;;;6.34;84.84;99035.70;220054;1256;140355;-69
2023/11/12 17:27:07;;;;;;;14.90;11.60;;;;;;;6.37;85.29;99041.45;220121;1256;140081;-68
2023/11/12 17:32:15;;;;;;;13.50;9.60;;;;;;;6.41;85.33;99041.72;219798;1257;140379;-67
2023/11/12 17:37:17;;;;;;;13.10;10.00;;;;;;;6.43;85.20;99046.30;220387;1256;140783;-66
2023/11/12 17:42:22;;;;;;;12.70;9.20;;;;;;;6.43;85.49;99053.92;220234;1256;140039;-70
2023/11/12 17:47:29;;;;;;;12.50;8.30;;;;;;;6.40;85.32;99052.98;220121;1256;140619;-69
2023/11/12 17:52:40;;;;;;;13.20;10.10;;;;;;;6.36;85.46;99058.73;220235;1257;140027;-66
2023/11/12 17:57:46;;;;;;;12.20;9.30;;;;;;;6.32;85.47;99062.48;219458;1256;140000;-66
2023/11/12 18:02:58;;;;;;;13.60;10.00;;;;;;;6.28;85.31;99064.33;218894;1257;139722;-68
2023/11/12 18:08:07;;;;;;;13.10;9.80;;;;;;;6.24;85.98;99064.90;218798;1257;140521;-67
2023/11/12 18:13:15;;;;;;;13.60;10.00;;;;;;;6.20;86.38;99071.21;220192;1256;140253;-69
2023/11/12 18:18:18;;;;;;;12.80;8.70;;;;;;;6.14;86.03;99074.95;219052;1259;139809;-72
2023/11/12 18:23:23;;;;;;;11.40;9.10;;;;;;;6.11;86.37;99076.02;218378;1257;140158;-69
2023/11/12 18:28:27;;;;;;;9.60;8.10;;;;;;;6.05;86.55;99082.27;220229;1256;140569;-70
2023/11/12 18:33:32;;;;;;;10.70;8.00;;;;;;;6.02;86.49;99084.27;220282;1256;139888;-70
2023/11/12 18:38:36;;;;;;;8.50;7.00;;;;;;;5.98;86.33;99083.33;218261;1257;140729;-68
2023/11/12 18:43:41;;;;;;;10.00;8.90;;;;;;;5.95;86.46;99083.61;218056;1256;139453;-70
2023/11/12 18:48:47;;;;;;;9.00;6.80;;;;;;;5.92;86.65;99089.48;220393;1256;140862;-69
2023/11/12 18:53:57;;;;;;;7.10;6.10;;;;;;;5.87;86.75;99089.00;220143;1256;141198;-69
2023/11/12 18:59:05;;;;;;;9.70;7.40;;;;;;;5.82;86.52;99094.66;218169;1256;140248;-69
2023/11/12 19:04:15;;;;;;;7.40;6.40;;;;;;;5.74;86.66;99095.56;220186;1256;139948;-71
2023/11/12 19:09:20;;;;;;;9.90;8.00;;;;;;;5.73;86.69;99100.46;220212;1256;140249;-69
2023/11/12 19:14:23;;;;;;;9.70;6.40;;;;;;;5.73;87.01;99104.60;220238;1256;140464;-70
2023/11/12 19:19:28;;;;;;;6.10;5.40;;;;;;;5.71;87.05;99101.41;220067;1256;140522;-72
2023/11/12 19:24:35;;;;;;;10.10;7.30;;;;;;;5.71;87.21;99107.10;220072;1257;139918;-70
2023/11/12 19:29:43;;;;;;;11.20;7.50;;;;;;;5.72;87.46;99111.44;220125;1256;140430;-70
2023/11/12 19:34:51;;;;;;;11.60;7.70;;;;;;;5.74;87.15;99115.83;220224;1257;140590;-70
2023/11/12 19:39:57;;;;;;;10.60;9.60;;;;;;;5.72;87.23;99121.53;220365;1256;142218;-71
2023/11/12 19:45:05;;;;;;;;;;;;;;;5.72;87.65;99121.38;220373;1256;140653;-70
2023/11/12 19:50:11;;;;;;;10.50;8.50;;;;;;;5.69;87.36;99123.44;220728;1256;126592;-70
2023/11/12 19:55:16;;;;;;;13.40;8.10;;;;;;;5.69;87.63;99127.00;220154;1256;139639;-71
2023/11/12 20:00:19;;;;;;;12.10;7.30;;;;;;;5.71;87.64;99129.80;220237;1257;140284;-71
2023/11/12 20:05:21;;;;;;;12.00;7.70;;;;;;;5.75;87.66;99131.16;220039;1256;139993;-71
2023/11/12 20:10:24;;;;;;;7.40;6.60;;;;;;;5.78;87.94;99128.64;219878;1256;141276;-70
2023/11/12 20:15:26;;;;;;;8.30;6.80;;;;;;;5.78;87.94;99133.69;218278;1256;140434;-70
2023/11/12 20:20:29;;;;;;;11.00;7.90;;;;;;;5.77;87.95;99138.54;220103;1259;140202;-70
2023/11/12 20:25:36;;;;;;;11.30;10.10;;;;;;;5.77;88.32;99133.45;219008;1256;140521;-70
2023/11/12 20:30:43;;;;;;;15.30;9.70;;;;;;;5.74;88.10;99132.05;220110;1256;141770;-70
2023/11/12 20:35:47;;;;;;;13.50;9.30;;;;;;;5.70;87.92;99133.99;219641;1257;141314;-70
2023/11/12 20:40:53;;;;;;;12.10;9.50;;;;;;;5.71;88.46;99137.05;218451;1256;140661;-69
2023/11/12 20:45:57;;;;;;;13.70;8.70;;;;;;;5.73;88.34;99140.60;218301;1256;141017;-67
2023/11/12 20:51:02;;;;;;;11.60;8.70;;;;;;;5.72;88.29;99147.25;220210;1257;141040;-68
2023/11/12 20:56:10;;;;;;;11.10;7.90;;;;;;;5.67;88.58;99142.69;220180;1256;139797;-68
2023/11/12 21:01:12;;;;;;;13.20;8.00;;;;;;;5.67;88.82;99138.55;220138;1256;140007;-69
2023/11/12 21:06:17;;;;;;;9.70;6.60;;;;;;;5.66;88.22;99142.16;220305;1256;141374;-68
2023/11/12 21:11:19;;;;;;;8.70;5.40;;;;;;;5.65;88.16;99131.73;220050;1256;140684;-69
2023/11/12 21:16:22;;;;;;;7.30;6.30;;;;;;;5.61;87.94;99134.92;220123;1256;140924;-68
2023/11/12 21:21:25;;;;;;;5.10;4.40;;;;;;;5.59;87.96;99137.51;220303;1256;140745;-68
2023/11/12 21:26:28;;;;;;;237.50;118.40;;;;;;;5.56;88.12;99139.15;220564;1256;140855;-69
2023/11/12 21:31:31;;;;;;;29.30;14.40;;;;;;;5.55;88.39;99143.19;220378;1256;141403;-68
2023/11/12 21:36:34;;;;;;;11.80;7.50;;;;;;;5.50;87.98;99137.39;220318;1256;139922;-67
2023/11/12 21:41:39;;;;;;;11.20;7.90;;;;;;;5.49;88.30;99143.55;220143;1256;223235;-68
2023/11/12 21:46:43;;;;;;;10.60;8.30;;;;;;;5.48;88.38;99136.65;220207;1256;140005;-68
2023/11/12 21:51:47;;;;;;;9.00;6.80;;;;;;;5.47;88.50;99139.66;220205;1257;139985;-67
2023/11/12 21:56:54;;;;;;;21.40;7.80;;;;;;;5.44;88.59;99142.33;220120;1258;140464;-69
2023/11/12 22:01:57;;;;;;;15.60;10.60;;;;;;;5.43;88.76;99143.71;220115;1256;140674;-69
2023/11/12 22:07:01;;;;;;;17.30;11.30;;;;;;;5.42;89.21;99151.77;220151;1257;141164;-67
2023/11/12 22:18:28;;;;;;;16.20;10.00;;;;;;;5.43;89.51;99154.73;220017;1256;141487;-67
2023/11/12 22:23:32;;;;;;;11.50;9.40;;;;;;;5.44;89.25;99151.56;219337;1257;140445;-68
2023/11/12 22:28:38;;;;;;;17.30;10.60;;;;;;;5.42;89.41;99155.11;220177;1256;141197;-68
2023/11/12 22:33:43;;;;;;;11.70;9.20;;;;;;;5.43;89.38;99159.41;220169;1257;166170;-67
2023/11/12 22:38:48;;;;;;;10.70;8.70;;;;;;;5.45;89.40;99158.64;220248;1256;140574;-68
2023/11/12 22:43:51;;;;;;;8.40;6.30;;;;;;;5.45;89.72;99160.90;220505;1256;140622;-69
2023/11/12 22:48:55;;;;;;;10.10;7.20;;;;;;;5.46;89.33;99164.85;220187;1257;140271;-68
2023/11/12 22:53:59;;;;;;;11.40;7.00;;;;;;;5.47;89.45;99168.54;218370;1258;141025;-68
2023/11/12 22:59:03;;;;;;;8.00;6.30;;;;;;;5.47;89.44;99170.16;220112;1258;140827;-68
2023/11/12 23:04:08;;;;;;;7.70;5.70;;;;;;;5.46;89.58;99174.85;220341;1256;141349;-68
2023/11/12 23:09:15;;;;;;;9.10;5.70;;;;;;;5.43;89.62;99183.37;220156;1258;139877;-69
2023/11/12 23:14:18;;;;;;;6.60;4.80;;;;;;;5.42;89.61;99187.20;220283;1255;141221;-68
2023/11/12 23:19:21;;;;;;;5.70;4.80;;;;;;;5.39;89.48;99191.45;220068;1257;140035;-70